createdAt,value
2018-10-16T00:01:55.283Z,8.47
2018-10-16T00:04:24.154Z,10.87
2018-10-16T00:06:52.809Z,9.13
2018-10-16T00:09:21.649Z,9.00
2018-10-16T00:12:02.611Z,9.07
2018-10-16T00:14:31.501Z,10.37
2018-10-16T00:17:01.375Z,8.17
2018-10-16T00:19:30.390Z,10.00
2018-10-16T00:21:59.052Z,8.83
2018-10-16T00:24:27.670Z,9.03
2018-10-16T00:26:56.279Z,8.67
2018-10-16T00:29:24.901Z,11.07
2018-10-16T00:31:53.281Z,9.70
2018-10-16T00:34:21.715Z,7.67
2018-10-16T00:36:50.118Z,9.67
2018-10-16T00:39:18.758Z,10.23
2018-10-16T00:41:52.441Z,8.73
2018-10-16T00:44:21.048Z,8.27
2018-10-16T00:46:49.826Z,9.17
2018-10-16T00:49:18.324Z,8.50
2018-10-16T00:51:46.731Z,10.50
2018-10-16T00:54:15.147Z,10.47
2018-10-16T00:56:43.623Z,8.97
2018-10-16T00:59:12.075Z,9.67
2018-10-16T01:01:40.475Z,7.63
2018-10-16T01:04:09.409Z,8.67
2018-10-16T01:06:38.353Z,8.43
2018-10-16T01:09:09.956Z,8.77
2018-10-16T01:11:39.090Z,11.13
2018-10-16T01:14:07.538Z,9.10
2018-10-16T01:16:36.044Z,9.60
2018-10-16T01:19:05.500Z,9.13
2018-10-16T01:21:33.900Z,9.97
2018-10-16T01:24:02.271Z,10.00
2018-10-16T01:26:30.707Z,11.40
2018-10-16T01:28:59.154Z,9.30
2018-10-16T01:31:27.560Z,9.37
2018-10-16T01:33:55.935Z,9.50
2018-10-16T01:36:24.362Z,9.37
2018-10-16T01:38:52.741Z,10.83
2018-10-16T01:41:21.178Z,10.60
2018-10-16T01:43:49.556Z,10.07
2018-10-16T01:46:18.002Z,10.27
2018-10-16T01:48:46.384Z,11.43
2018-10-16T01:51:14.888Z,9.70
2018-10-16T01:53:43.264Z,9.57
2018-10-16T01:56:11.672Z,9.67
2018-10-16T01:58:40.045Z,9.93
2018-10-16T02:01:09.592Z,8.60
2018-10-16T02:03:38.047Z,10.70
2018-10-16T02:06:06.456Z,9.87
2018-10-16T02:08:34.828Z,10.50
2018-10-16T02:11:03.231Z,10.93
2018-10-16T02:13:31.609Z,11.03
2018-10-16T02:16:00.334Z,9.00
2018-10-16T02:18:28.723Z,8.40
2018-10-16T02:20:57.091Z,9.07
2018-10-16T02:23:25.478Z,8.97
2018-10-16T02:25:53.852Z,8.17
2018-10-16T02:28:22.332Z,11.50
2018-10-16T02:30:51.118Z,10.87
2018-10-16T02:33:19.583Z,10.37
2018-10-16T02:35:47.965Z,10.60
2018-10-16T02:38:16.439Z,10.40
2018-10-16T02:40:44.820Z,11.10
2018-10-16T02:43:13.220Z,10.80
2018-10-16T02:45:41.616Z,10.10
2018-10-16T02:48:10.048Z,10.73
2018-10-16T02:50:38.427Z,10.13
2018-10-16T02:53:06.963Z,11.27
2018-10-16T02:55:35.324Z,10.40
2018-10-16T02:58:03.970Z,11.43
2018-10-16T03:00:32.347Z,10.50
2018-10-16T03:03:00.727Z,11.90
2018-10-16T03:05:29.103Z,10.77
2018-10-16T03:07:57.546Z,9.77
2018-10-16T03:10:25.972Z,8.50
2018-10-16T03:12:54.392Z,8.73
2018-10-16T03:15:22.804Z,9.63
2018-10-16T03:17:51.244Z,9.90
2018-10-16T03:20:19.703Z,11.53
2018-10-16T03:22:48.072Z,11.47
2018-10-16T03:25:16.446Z,10.53
2018-10-16T03:27:44.839Z,11.47
2018-10-16T03:30:13.656Z,12.90
2018-10-16T03:32:42.240Z,10.53
2018-10-16T03:35:11.739Z,11.27
2018-10-16T03:37:41.387Z,12.17
2018-10-16T03:40:10.766Z,12.83
2018-10-16T03:42:40.262Z,10.20
2018-10-16T03:45:10.165Z,11.07
2018-10-16T03:47:38.947Z,12.70
2018-10-16T03:50:07.645Z,13.50
2018-10-16T03:52:36.051Z,10.27
2018-10-16T03:55:04.525Z,12.40
2018-10-16T03:57:32.920Z,11.47
2018-10-16T04:00:02.088Z,10.37
2018-10-16T04:02:30.524Z,12.27
2018-10-16T04:04:58.916Z,11.30
2018-10-16T04:07:27.306Z,12.07
2018-10-16T04:09:55.788Z,12.50
2018-10-16T04:12:24.187Z,12.57
2018-10-16T04:14:52.868Z,13.23
2018-10-16T04:17:21.292Z,14.77
2018-10-16T04:19:49.694Z,14.60
2018-10-16T04:22:18.144Z,12.63
2018-10-16T04:24:46.550Z,11.27
2018-10-16T04:27:14.909Z,14.47
2018-10-16T04:29:43.285Z,12.20
2018-10-16T04:32:11.647Z,12.80
2018-10-16T04:34:40.028Z,11.63
2018-10-16T04:37:08.456Z,13.17
2018-10-16T04:39:36.840Z,11.37
2018-10-16T04:42:05.207Z,13.63
2018-10-16T04:44:33.599Z,12.57
2018-10-16T04:47:01.944Z,10.83
2018-10-16T04:49:30.316Z,12.10
2018-10-16T04:51:58.665Z,11.47
2018-10-16T04:54:27.040Z,13.03
2018-10-16T04:56:55.375Z,12.60
2018-10-16T04:59:23.809Z,11.20
2018-10-16T05:01:52.172Z,11.13
2018-10-16T05:04:20.544Z,12.90
2018-10-16T05:06:48.903Z,12.97
2018-10-16T05:09:17.282Z,14.53
2018-10-16T05:11:51.312Z,14.10
2018-10-16T05:14:19.683Z,10.57
2018-10-16T05:16:48.049Z,14.07
2018-10-16T05:19:16.505Z,13.90
2018-10-16T05:21:44.800Z,13.47
2018-10-16T05:24:13.162Z,13.30
2018-10-16T05:26:41.599Z,12.50
2018-10-16T05:29:10.871Z,12.60
2018-10-16T05:31:39.266Z,11.30
2018-10-16T05:34:08.590Z,12.07
2018-10-16T05:36:37.159Z,14.97
2018-10-16T05:39:08.233Z,12.67
2018-10-16T05:41:36.636Z,16.40
2018-10-16T05:44:05.288Z,12.83
2018-10-16T05:46:33.645Z,13.33
2018-10-16T05:49:02.013Z,11.83
2018-10-16T05:51:30.531Z,14.70
2018-10-16T05:53:58.927Z,12.17
2018-10-16T05:56:27.281Z,11.83
2018-10-16T05:58:55.664Z,12.37
2018-10-16T06:01:24.018Z,13.00
2018-10-16T06:03:52.374Z,14.50
2018-10-16T06:06:21.776Z,13.10
2018-10-16T06:08:50.726Z,13.73
2018-10-16T06:11:19.140Z,12.27
2018-10-16T06:13:47.560Z,12.93
2018-10-16T06:16:16.145Z,15.00
2018-10-16T06:18:44.497Z,13.17
2018-10-16T06:21:12.883Z,13.10
2018-10-16T06:23:41.281Z,15.87
2018-10-16T06:26:09.719Z,14.83
2018-10-16T06:28:38.073Z,17.80
2018-10-16T06:31:06.512Z,15.53
2018-10-16T06:33:34.884Z,13.87
2018-10-16T06:36:03.276Z,16.97
2018-10-16T06:38:31.635Z,14.37
2018-10-16T06:41:00.212Z,12.40
2018-10-16T06:43:28.398Z,16.50
2018-10-16T06:45:56.754Z,14.20
2018-10-16T06:48:25.376Z,15.13
2018-10-16T06:50:53.597Z,15.20
2018-10-16T06:53:21.995Z,13.70
2018-10-16T06:55:50.355Z,12.23
2018-10-16T06:58:18.736Z,13.10
2018-10-16T07:00:47.272Z,12.60
2018-10-16T07:03:15.629Z,14.00
2018-10-16T07:05:44.013Z,13.60
2018-10-16T07:08:12.372Z,14.70
2018-10-16T07:10:40.741Z,15.17
2018-10-16T07:13:09.086Z,14.80
2018-10-16T07:15:37.456Z,15.20
2018-10-16T07:18:05.955Z,16.27
2018-10-16T07:20:34.328Z,15.33
2018-10-16T07:23:02.753Z,15.33
2018-10-16T07:25:31.130Z,13.30
2018-10-16T07:27:59.509Z,16.07
2018-10-16T07:30:28.705Z,17.73
2018-10-16T07:32:57.072Z,15.27
2018-10-16T07:35:25.425Z,17.10
2018-10-16T07:37:53.869Z,14.03
2018-10-16T07:40:22.189Z,14.77
2018-10-16T07:42:50.582Z,13.30
2018-10-16T07:45:18.960Z,17.57
2018-10-16T07:47:47.377Z,18.70
2018-10-16T07:50:15.724Z,13.73
2018-10-16T07:52:44.105Z,15.43
2018-10-16T07:55:13.740Z,13.90
2018-10-16T07:57:42.161Z,15.17
2018-10-16T08:00:11.591Z,14.17
2018-10-16T08:02:40.506Z,16.73
2018-10-16T08:05:10.101Z,13.20
2018-10-16T08:07:38.884Z,13.30
2018-10-16T08:10:08.433Z,15.27
2018-10-16T08:12:36.877Z,15.27
2018-10-16T08:15:06.430Z,17.50
2018-10-16T08:17:34.827Z,10.27
2018-10-16T08:20:03.197Z,13.40
2018-10-16T08:22:31.588Z,13.73
2018-10-16T08:24:59.953Z,16.30
2018-10-16T08:27:28.300Z,17.37
2018-10-16T08:29:56.740Z,12.83
2018-10-16T08:32:25.039Z,14.13
2018-10-16T08:34:53.403Z,13.47
2018-10-16T08:37:29.027Z,14.80
2018-10-16T08:39:59.404Z,16.30
2018-10-16T08:42:46.738Z,14.33
2018-10-16T08:45:27.085Z,16.03
2018-10-16T08:48:06.905Z,13.37
2018-10-16T08:50:47.988Z,15.43
2018-10-16T08:53:16.369Z,14.93
2018-10-16T08:55:44.781Z,14.80
2018-10-16T08:58:13.165Z,17.03
2018-10-16T09:00:41.535Z,13.07
2018-10-16T09:03:09.908Z,14.60
2018-10-16T09:05:38.276Z,14.53
2018-10-16T09:08:06.634Z,16.77
2018-10-16T09:10:35.020Z,15.17
2018-10-16T09:13:03.413Z,18.60
2018-10-16T09:15:31.789Z,17.43
2018-10-16T09:18:00.187Z,14.50
2018-10-16T09:20:28.592Z,16.20
2018-10-16T09:22:56.964Z,19.77
2018-10-16T09:25:25.396Z,15.63
2018-10-16T09:27:53.765Z,18.87
2018-10-16T09:30:22.141Z,15.93
2018-10-16T09:32:50.632Z,17.63
2018-10-16T09:35:19.016Z,15.10
2018-10-16T09:37:47.462Z,14.60
2018-10-16T09:40:15.792Z,17.27
2018-10-16T09:42:44.162Z,18.00
2018-10-16T09:45:12.526Z,19.30
2018-10-16T09:47:40.876Z,22.07
2018-10-16T09:50:10.445Z,17.30
2018-10-16T09:52:38.854Z,17.13
2018-10-16T09:55:08.368Z,18.47
2018-10-16T09:57:36.755Z,19.20
2018-10-16T10:00:13.191Z,19.03
2018-10-16T10:02:41.619Z,17.97
2018-10-16T10:05:09.979Z,20.20
2018-10-16T10:07:38.382Z,18.97
2018-10-16T10:10:06.971Z,20.13
2018-10-16T10:12:35.323Z,19.07
2018-10-16T10:15:03.716Z,18.60
2018-10-16T10:17:32.084Z,18.13
2018-10-16T10:20:00.458Z,19.10
2018-10-16T10:22:28.855Z,17.37
2018-10-16T10:24:57.231Z,18.57
2018-10-16T10:27:25.576Z,17.27
2018-10-16T10:29:54.017Z,16.03
2018-10-16T10:32:22.370Z,18.60
2018-10-16T10:34:50.775Z,19.70
2018-10-16T10:37:19.148Z,18.87
2018-10-16T10:39:47.507Z,17.77
2018-10-16T10:42:15.940Z,16.73
2018-10-16T10:44:44.307Z,17.30
2018-10-16T10:47:12.677Z,19.97
2018-10-16T10:49:41.032Z,18.57
2018-10-16T10:52:09.463Z,17.80
2018-10-16T10:54:37.831Z,19.23
2018-10-16T10:57:07.727Z,16.47
2018-10-16T10:59:35.929Z,19.73
2018-10-16T11:02:05.025Z,20.00
2018-10-16T11:04:33.368Z,17.70
2018-10-16T11:07:01.748Z,19.00
2018-10-16T11:09:30.129Z,20.43
2018-10-16T11:11:58.918Z,18.63
2018-10-16T11:14:28.143Z,21.63
2018-10-16T11:16:56.546Z,16.23
2018-10-16T11:19:24.961Z,16.87
2018-10-16T11:21:56.139Z,16.60
2018-10-16T11:24:24.861Z,19.97
2018-10-16T11:26:53.248Z,18.40
2018-10-16T11:29:23.350Z,20.27
2018-10-16T11:31:51.715Z,16.87
2018-10-16T11:34:20.502Z,19.00
2018-10-16T11:36:48.887Z,16.63
2018-10-16T11:39:17.241Z,16.00
2018-10-16T11:41:45.620Z,15.80
2018-10-16T11:44:15.400Z,15.47
2018-10-16T11:46:43.927Z,17.87
2018-10-16T11:49:12.384Z,16.67
2018-10-16T11:51:40.767Z,19.20
2018-10-16T11:54:09.580Z,15.37
2018-10-16T11:56:38.212Z,17.87
2018-10-16T11:59:06.593Z,17.67
2018-10-16T12:01:34.941Z,20.93
2018-10-16T12:04:03.307Z,18.07
2018-10-16T12:06:31.777Z,18.43
2018-10-16T12:09:00.148Z,18.13
2018-10-16T12:11:28.527Z,19.53
2018-10-16T12:13:56.958Z,20.93
2018-10-16T12:16:28.575Z,15.33
2018-10-16T12:19:00.504Z,18.60
2018-10-16T12:21:28.909Z,17.13
2018-10-16T12:23:57.293Z,18.70
2018-10-16T12:26:25.668Z,20.20
2018-10-16T12:28:54.081Z,18.77
2018-10-16T12:31:22.420Z,22.27
2018-10-16T12:33:50.795Z,21.17
2018-10-16T12:36:19.335Z,18.47
2018-10-16T12:38:47.696Z,21.17
2018-10-16T12:41:16.143Z,19.20
2018-10-16T12:43:44.503Z,17.60
2018-10-16T12:46:12.883Z,20.17
2018-10-16T12:48:41.208Z,17.77
2018-10-16T12:51:09.595Z,16.80
2018-10-16T12:53:37.960Z,17.47
2018-10-16T12:56:06.613Z,17.57
2018-10-16T12:58:34.989Z,14.03
2018-10-16T13:01:03.341Z,15.07
2018-10-16T13:03:31.795Z,16.77
2018-10-16T13:06:00.185Z,22.20
2018-10-16T13:08:28.559Z,22.73
2018-10-16T13:10:56.913Z,23.23
2018-10-16T13:13:25.311Z,21.03
2018-10-16T13:15:53.698Z,19.70
2018-10-16T13:18:22.176Z,19.90
2018-10-16T13:20:50.520Z,20.77
2018-10-16T13:23:18.954Z,18.03
2018-10-16T13:25:47.280Z,19.60
2018-10-16T13:28:15.655Z,16.63
2018-10-16T13:30:44.025Z,17.27
2018-10-16T13:33:12.381Z,15.47
2018-10-16T13:35:40.765Z,17.87
2018-10-16T13:38:09.391Z,15.70
2018-10-16T13:40:37.792Z,15.50
2018-10-16T13:43:06.237Z,17.00
2018-10-16T13:45:34.609Z,14.73
2018-10-16T13:48:02.960Z,15.33
2018-10-16T13:50:31.334Z,15.67
2018-10-16T13:52:59.692Z,16.83
2018-10-16T13:55:28.070Z,14.93
2018-10-16T13:57:56.443Z,14.37
2018-10-16T14:00:24.819Z,16.27
2018-10-16T14:02:53.693Z,15.97
2018-10-16T14:05:22.143Z,18.73
2018-10-16T14:07:50.598Z,19.50
2018-10-16T14:10:18.977Z,17.33
2018-10-16T14:12:48.161Z,19.30
2018-10-16T14:15:16.971Z,19.13
2018-10-16T14:17:45.368Z,18.20
2018-10-16T14:20:13.826Z,18.37
2018-10-16T14:22:43.003Z,19.60
2018-10-16T14:25:12.846Z,18.70
2018-10-16T14:27:41.744Z,19.07
2018-10-16T14:30:11.647Z,20.87
2018-10-16T14:32:40.407Z,19.30
2018-10-16T14:35:09.619Z,19.67
2018-10-16T14:37:38.632Z,17.67
2018-10-16T14:40:08.420Z,18.53
2018-10-16T14:42:36.769Z,18.10
2018-10-16T14:45:06.005Z,20.67
2018-10-16T14:47:34.376Z,19.80
2018-10-16T14:50:02.776Z,19.03
2018-10-16T14:52:31.134Z,18.87
2018-10-16T14:54:59.503Z,18.67
2018-10-16T14:57:27.860Z,17.33
2018-10-16T14:59:56.201Z,19.37
2018-10-16T15:02:24.577Z,17.03
2018-10-16T15:04:52.923Z,18.93
2018-10-16T15:07:21.442Z,18.03
2018-10-16T15:09:49.827Z,18.83
2018-10-16T15:12:19.056Z,18.37
2018-10-16T15:14:47.399Z,21.03
2018-10-16T15:17:15.784Z,16.83
2018-10-16T15:19:44.164Z,19.97
2018-10-16T15:22:12.628Z,19.20
2018-10-16T15:24:40.907Z,17.83
2018-10-16T15:27:09.259Z,19.87
2018-10-16T15:29:37.726Z,19.43
2018-10-16T15:32:06.144Z,23.23
2018-10-16T15:34:34.487Z,20.77
2018-10-16T15:37:02.836Z,20.90
2018-10-16T15:39:31.199Z,17.87
2018-10-16T15:41:59.566Z,20.10
2018-10-16T15:44:27.948Z,22.60
2018-10-16T15:46:56.316Z,23.73
2018-10-16T15:49:24.684Z,21.83
2018-10-16T15:51:53.199Z,22.87
2018-10-16T15:54:21.605Z,21.27
2018-10-16T15:56:49.991Z,24.33
2018-10-16T15:59:18.400Z,24.17
2018-10-16T16:01:46.752Z,25.80
2018-10-16T16:04:15.136Z,26.07
2018-10-16T16:06:43.544Z,25.33
2018-10-16T16:09:12.165Z,24.90
2018-10-16T16:11:40.512Z,26.87
2018-10-16T16:14:08.914Z,24.07
2018-10-16T16:16:37.375Z,25.20
2018-10-16T16:19:05.849Z,24.23
2018-10-16T16:21:34.240Z,21.40
2018-10-16T16:24:02.679Z,23.10
2018-10-16T16:26:31.012Z,19.93
2018-10-16T16:28:59.379Z,19.03
2018-10-16T16:31:27.765Z,19.57
2018-10-16T16:33:56.214Z,18.57
2018-10-16T16:36:24.535Z,17.37
2018-10-16T16:38:52.900Z,19.37
2018-10-16T16:41:21.254Z,18.00
2018-10-16T16:43:49.681Z,20.50
2018-10-16T16:46:18.055Z,18.17
2018-10-16T16:48:46.413Z,16.93
2018-10-16T16:51:14.851Z,17.83
2018-10-16T16:53:43.148Z,16.57
2018-10-16T16:56:11.587Z,16.87
2018-10-16T16:58:39.884Z,17.17
2018-10-16T17:01:08.259Z,18.93
2018-10-16T17:03:36.588Z,17.00
2018-10-16T17:06:04.969Z,18.67
2018-10-16T17:08:33.356Z,15.80
2018-10-16T17:11:01.957Z,18.57
2018-10-16T17:13:30.305Z,15.70
2018-10-16T17:15:58.740Z,18.13
2018-10-16T17:18:27.171Z,18.10
2018-10-16T17:20:55.552Z,21.00
2018-10-16T17:23:23.897Z,20.00
2018-10-16T17:25:52.601Z,24.60
2018-10-16T17:28:20.653Z,18.50
2018-10-16T17:30:49.080Z,20.50
2018-10-16T17:33:17.428Z,20.50
2018-10-16T17:35:45.808Z,19.00
2018-10-16T17:38:14.183Z,24.00
2018-10-16T17:40:42.642Z,18.37
2018-10-16T17:43:10.940Z,17.67
2018-10-16T17:45:39.315Z,18.93
2018-10-16T17:48:07.720Z,18.30
2018-10-16T17:50:36.138Z,18.03
2018-10-16T17:53:04.532Z,19.00
2018-10-16T17:55:32.919Z,16.73
2018-10-16T17:58:01.570Z,16.33
2018-10-16T18:00:29.941Z,16.90
2018-10-16T18:02:58.296Z,19.70
2018-10-16T18:05:26.640Z,16.37
2018-10-16T18:07:55.068Z,17.80
2018-10-16T18:10:23.416Z,17.97
2018-10-16T18:12:51.920Z,18.97
2018-10-16T18:15:20.271Z,16.13
2018-10-16T18:17:48.664Z,17.37
2018-10-16T18:20:17.072Z,19.20
2018-10-16T18:22:46.020Z,20.13
2018-10-16T18:25:14.432Z,17.93
2018-10-16T18:27:43.790Z,15.43
2018-10-16T18:30:12.556Z,15.90
2018-10-16T18:32:41.148Z,15.70
2018-10-16T18:35:10.328Z,15.20
2018-10-16T18:37:39.165Z,17.50
2018-10-16T18:40:08.833Z,16.17
2018-10-16T18:42:37.239Z,14.90
2018-10-16T18:45:06.448Z,18.23
2018-10-16T18:47:35.007Z,15.73
2018-10-16T18:50:03.484Z,16.30
2018-10-16T18:52:32.081Z,18.03
2018-10-16T18:55:00.423Z,15.73
2018-10-16T18:57:28.832Z,16.00
2018-10-16T18:59:57.183Z,13.23
2018-10-16T19:02:25.608Z,15.13
2018-10-16T19:04:54.152Z,16.33
2018-10-16T19:07:22.519Z,18.33
2018-10-16T19:09:51.091Z,15.93
2018-10-16T19:12:19.745Z,15.70
2018-10-16T19:14:48.319Z,17.70
2018-10-16T19:17:16.718Z,14.67
2018-10-16T19:19:45.197Z,15.70
2018-10-16T19:22:13.546Z,16.23
2018-10-16T19:24:41.981Z,18.77
2018-10-16T19:27:10.661Z,17.23
2018-10-16T19:29:39.208Z,15.30
2018-10-16T19:32:07.557Z,14.80
2018-10-16T19:34:35.928Z,15.33
2018-10-16T19:37:04.301Z,15.23
2018-10-16T19:39:32.671Z,18.23
2018-10-16T19:42:01.333Z,18.77
2018-10-16T19:44:29.972Z,18.13
2018-10-16T19:46:58.321Z,16.67
2018-10-16T19:49:26.694Z,18.03
2018-10-16T19:51:55.052Z,18.53
2018-10-16T19:54:23.425Z,17.53
2018-10-16T19:56:52.128Z,14.77
2018-10-16T19:59:20.727Z,14.80
2018-10-16T20:01:49.100Z,18.47
2018-10-16T20:04:17.480Z,19.17
2018-10-16T20:06:45.841Z,15.73
2018-10-16T20:09:14.256Z,15.07
2018-10-16T20:11:42.859Z,16.23
2018-10-16T20:14:11.320Z,16.60
2018-10-16T20:16:39.716Z,14.80
2018-10-16T20:19:08.186Z,16.73
2018-10-16T20:21:37.380Z,16.50
2018-10-16T20:24:06.432Z,17.03
2018-10-16T20:26:35.120Z,16.07
2018-10-16T20:29:03.692Z,15.37
2018-10-16T20:31:32.050Z,15.67
2018-10-16T20:34:00.394Z,15.90
2018-10-16T20:36:30.125Z,16.43
2018-10-16T20:38:58.727Z,15.30
2018-10-16T20:41:27.322Z,14.23
2018-10-16T20:43:55.726Z,14.87
2018-10-16T20:46:24.096Z,14.67
2018-10-16T20:48:52.486Z,15.87
2018-10-16T20:51:20.877Z,14.90
2018-10-16T20:53:49.527Z,13.90
2018-10-16T20:56:18.171Z,14.87
2018-10-16T20:58:46.574Z,13.47
2018-10-16T21:01:15.378Z,14.80
2018-10-16T21:03:43.825Z,17.53
2018-10-16T21:06:12.670Z,15.37
2018-10-16T21:08:40.800Z,12.80
2018-10-16T21:11:09.532Z,14.77
2018-10-16T21:13:38.173Z,15.97
2018-10-16T21:16:06.535Z,16.73
2018-10-16T21:18:35.570Z,12.67
2018-10-16T21:21:04.029Z,13.40
2018-10-16T21:23:32.404Z,14.17
2018-10-16T21:26:01.066Z,13.63
2018-10-16T21:28:31.856Z,13.03
2018-10-16T21:31:01.855Z,12.07
2018-10-16T21:33:32.601Z,9.67
2018-10-16T21:36:03.485Z,11.60
2018-10-16T21:38:33.428Z,11.37
2018-10-16T21:41:03.353Z,11.40
2018-10-16T21:43:32.485Z,11.30
2018-10-16T21:46:01.625Z,12.47
2018-10-16T21:48:31.445Z,14.83
2018-10-16T21:50:59.885Z,11.83
2018-10-16T21:53:28.236Z,11.23
2018-10-16T21:55:56.635Z,12.10
2018-10-16T21:58:25.000Z,13.33
2018-10-16T22:00:58.694Z,13.57
2018-10-16T22:03:27.080Z,12.33
2018-10-16T22:05:56.578Z,12.83
2018-10-16T22:08:25.739Z,14.67
2018-10-16T22:10:54.247Z,11.93
2018-10-16T22:13:22.603Z,11.10
2018-10-16T22:15:50.951Z,11.13
2018-10-16T22:18:19.344Z,10.33
2018-10-16T22:20:47.708Z,10.47
2018-10-16T22:23:16.156Z,14.00
2018-10-16T22:25:44.471Z,11.30
2018-10-16T22:28:12.857Z,11.43
2018-10-16T22:30:41.212Z,12.13
2018-10-16T22:33:09.580Z,11.93
2018-10-16T22:35:37.939Z,12.63
2018-10-16T22:38:07.394Z,10.70
2018-10-16T22:40:35.750Z,11.90
2018-10-16T22:43:04.146Z,11.27
2018-10-16T22:45:32.606Z,11.97
2018-10-16T22:48:00.975Z,10.87
2018-10-16T22:50:29.335Z,10.37
2018-10-16T22:52:57.729Z,10.13
2018-10-16T22:55:26.081Z,8.40
2018-10-16T22:57:54.440Z,8.60
2018-10-16T23:00:22.772Z,9.83
2018-10-16T23:02:51.137Z,8.07
2018-10-16T23:05:19.485Z,8.20
2018-10-16T23:07:47.843Z,8.17
2018-10-16T23:10:16.297Z,10.53
2018-10-16T23:12:45.749Z,9.63
2018-10-16T23:15:14.098Z,8.17
2018-10-16T23:17:42.482Z,7.93
2018-10-16T23:20:12.083Z,8.97
2018-10-16T23:22:40.503Z,8.87
2018-10-16T23:25:08.928Z,9.90
2018-10-16T23:27:37.250Z,9.67
2018-10-16T23:30:06.131Z,10.17
2018-10-16T23:32:34.517Z,8.97
2018-10-16T23:35:02.883Z,10.27
2018-10-16T23:37:31.247Z,8.97
2018-10-16T23:39:59.585Z,8.43
2018-10-16T23:42:27.996Z,9.87
2018-10-16T23:44:56.328Z,8.97
2018-10-16T23:47:24.689Z,8.03
2018-10-16T23:49:53.079Z,7.83
2018-10-16T23:52:21.411Z,6.87
2018-10-16T23:54:49.801Z,6.90
2018-10-16T23:57:18.146Z,6.40
2018-10-16T23:59:46.529Z,5.33
